createdAt,value
2018-07-05T00:00:07.771Z,6.07
2018-07-05T00:02:40.545Z,7.33
2018-07-05T00:05:13.401Z,5.67
2018-07-05T00:07:46.123Z,5.97
2018-07-05T00:10:18.937Z,5.70
2018-07-05T00:12:51.717Z,6.23
2018-07-05T00:15:24.677Z,5.60
2018-07-05T00:17:57.413Z,6.57
2018-07-05T00:20:30.417Z,6.03
2018-07-05T00:23:03.244Z,5.50
2018-07-05T00:25:35.914Z,5.80
2018-07-05T00:28:08.649Z,5.83
2018-07-05T00:30:41.312Z,5.57
2018-07-05T00:33:14.074Z,5.63
2018-07-05T00:35:46.929Z,5.63
2018-07-05T00:38:19.697Z,5.43
2018-07-05T00:40:52.506Z,5.10
2018-07-05T00:43:25.439Z,5.93
2018-07-05T00:45:58.042Z,5.47
2018-07-05T00:48:30.898Z,5.30
2018-07-05T00:51:03.857Z,5.83
2018-07-05T00:53:36.623Z,7.00
2018-07-05T00:56:09.440Z,5.50
2018-07-05T00:58:42.268Z,6.10
2018-07-05T01:01:15.069Z,5.83
2018-07-05T01:03:47.929Z,5.87
2018-07-05T01:06:20.649Z,5.10
2018-07-05T01:08:53.508Z,5.30
2018-07-05T01:11:26.341Z,5.80
2018-07-05T01:13:59.190Z,5.40
2018-07-05T01:16:31.993Z,5.83
2018-07-05T01:19:04.799Z,5.90
2018-07-05T01:21:37.633Z,5.37
2018-07-05T01:24:10.529Z,5.17
2018-07-05T01:26:43.676Z,5.70
2018-07-05T01:29:16.518Z,5.77
2018-07-05T01:31:49.161Z,5.43
2018-07-05T01:34:22.002Z,5.70
2018-07-05T01:36:54.764Z,6.10
2018-07-05T01:39:27.460Z,5.70
2018-07-05T01:42:00.236Z,6.80
2018-07-05T01:44:32.993Z,5.73
2018-07-05T01:47:05.780Z,5.53
2018-07-05T01:49:38.673Z,6.93
2018-07-05T01:52:11.592Z,5.70
2018-07-05T01:54:44.463Z,5.73
2018-07-05T01:57:17.214Z,6.70
2018-07-05T01:59:50.034Z,5.70
2018-07-05T02:02:22.860Z,5.63
2018-07-05T02:04:55.761Z,6.00
2018-07-05T02:07:28.492Z,6.03
2018-07-05T02:10:02.020Z,6.20
2018-07-05T02:12:34.917Z,5.77
2018-07-05T02:15:07.796Z,7.03
2018-07-05T02:17:40.661Z,6.70
2018-07-05T02:20:13.515Z,6.13
2018-07-05T02:22:46.368Z,5.97
2018-07-05T02:25:19.122Z,5.30
2018-07-05T02:27:51.895Z,6.20
2018-07-05T02:30:24.771Z,6.10
2018-07-05T02:32:57.617Z,9.00
2018-07-05T02:35:30.490Z,5.80
2018-07-05T02:38:08.772Z,6.13
2018-07-05T02:40:41.475Z,7.53
2018-07-05T02:43:14.330Z,6.70
2018-07-05T02:45:47.159Z,7.23
2018-07-05T02:48:19.892Z,7.50
2018-07-05T02:50:52.756Z,6.00
2018-07-05T02:53:25.755Z,6.93
2018-07-05T02:55:58.480Z,6.60
2018-07-05T02:58:31.243Z,5.57
2018-07-05T03:01:04.135Z,6.40
2018-07-05T03:03:37.017Z,5.90
2018-07-05T03:06:09.749Z,6.20
2018-07-05T03:08:42.497Z,6.10
2018-07-05T03:11:15.356Z,5.97
2018-07-05T03:13:48.163Z,5.80
2018-07-05T03:16:20.990Z,5.83
2018-07-05T03:18:53.708Z,6.80
2018-07-05T03:21:26.733Z,6.53
2018-07-05T03:23:59.551Z,5.80
2018-07-05T03:26:32.264Z,6.57
2018-07-05T03:29:05.060Z,6.97
2018-07-05T03:31:37.736Z,5.93
2018-07-05T03:34:10.655Z,5.67
2018-07-05T03:36:43.475Z,6.37
2018-07-05T03:39:16.260Z,6.13
2018-07-05T03:41:48.949Z,6.37
2018-07-05T03:44:21.808Z,6.60
2018-07-05T03:46:54.511Z,6.57
2018-07-05T03:49:27.347Z,9.47
2018-07-05T03:52:00.521Z,6.20
2018-07-05T03:54:33.276Z,6.63
2018-07-05T03:57:05.983Z,6.60
2018-07-05T03:59:38.808Z,6.63
2018-07-05T04:02:11.692Z,6.37
2018-07-05T04:04:44.368Z,7.10
2018-07-05T04:07:17.145Z,8.43
2018-07-05T04:09:49.839Z,6.07
2018-07-05T04:12:23.260Z,11.23
2018-07-05T04:14:55.915Z,6.33
2018-07-05T04:17:28.751Z,6.87
2018-07-05T04:20:01.576Z,7.67
2018-07-05T04:22:34.537Z,6.90
2018-07-05T04:25:07.402Z,7.53
2018-07-05T04:27:40.129Z,7.17
2018-07-05T04:30:12.809Z,7.30
2018-07-05T04:32:45.616Z,6.73
2018-07-05T04:35:18.505Z,9.33
2018-07-05T04:37:51.317Z,7.07
2018-07-05T04:40:23.924Z,6.60
2018-07-05T04:42:56.868Z,7.60
2018-07-05T04:45:29.588Z,6.87
2018-07-05T04:48:02.412Z,7.00
2018-07-05T04:50:35.100Z,6.90
2018-07-05T04:53:08.135Z,7.10
2018-07-05T04:55:40.934Z,6.87
2018-07-05T04:58:13.743Z,7.47
2018-07-05T05:00:46.600Z,7.13
2018-07-05T05:03:19.451Z,6.70
2018-07-05T05:05:52.053Z,7.40
2018-07-05T05:08:24.836Z,7.77
2018-07-05T05:10:57.433Z,7.63
2018-07-05T05:13:30.195Z,6.97
2018-07-05T05:16:02.916Z,7.40
2018-07-05T05:18:35.720Z,8.37
2018-07-05T05:21:08.468Z,7.73
2018-07-05T05:23:41.229Z,9.00
2018-07-05T05:26:13.836Z,9.23
2018-07-05T05:28:46.595Z,8.10
2018-07-05T05:31:19.611Z,8.17
2018-07-05T05:33:52.469Z,8.60
2018-07-05T05:36:25.180Z,8.30
2018-07-05T05:38:58.191Z,8.17
2018-07-05T05:41:30.907Z,8.60
2018-07-05T05:44:03.800Z,10.73
2018-07-05T05:46:36.621Z,8.67
2018-07-05T05:49:09.485Z,8.27
2018-07-05T05:51:42.217Z,8.17
2018-07-05T05:54:14.976Z,7.87
2018-07-05T05:56:47.795Z,7.63
2018-07-05T05:59:20.721Z,10.30
2018-07-05T06:01:53.591Z,9.83
2018-07-05T06:04:26.309Z,7.13
2018-07-05T06:06:58.947Z,9.53
2018-07-05T06:09:31.926Z,8.50
2018-07-05T06:12:04.627Z,8.37
2018-07-05T06:14:37.296Z,8.90
2018-07-05T06:17:10.185Z,10.40
2018-07-05T06:19:42.931Z,9.20
2018-07-05T06:22:15.898Z,19.43
2018-07-05T06:24:48.764Z,9.40
2018-07-05T06:27:21.536Z,11.07
2018-07-05T06:29:54.268Z,9.67
2018-07-05T06:32:26.976Z,15.63
2018-07-05T06:34:59.694Z,12.00
2018-07-05T06:37:32.627Z,13.97
2018-07-05T06:40:05.610Z,15.07
2018-07-05T06:42:38.315Z,11.50
2018-07-05T06:45:11.272Z,16.03
2018-07-05T06:47:44.089Z,9.70
2018-07-05T06:50:16.853Z,12.33
2018-07-05T06:52:49.575Z,14.10
2018-07-05T06:55:22.428Z,9.73
2018-07-05T06:57:55.272Z,13.77
2018-07-05T07:00:28.053Z,11.87
2018-07-05T07:03:00.925Z,11.20
2018-07-05T07:05:33.766Z,10.50
2018-07-05T07:08:08.281Z,10.67
2018-07-05T07:10:41.064Z,15.27
2018-07-05T07:13:13.799Z,12.07
2018-07-05T07:15:46.481Z,11.70
2018-07-05T07:18:19.155Z,12.23
2018-07-05T07:20:51.851Z,10.80
2018-07-05T07:23:24.604Z,9.40
2018-07-05T07:25:57.384Z,12.87
2018-07-05T07:28:30.080Z,11.07
2018-07-05T07:31:02.972Z,11.20
2018-07-05T07:33:35.844Z,13.57
2018-07-05T07:36:08.598Z,12.23
2018-07-05T07:38:41.431Z,11.50
2018-07-05T07:41:14.110Z,9.70
2018-07-05T07:43:40.719Z,11.03
2018-07-05T07:46:07.360Z,10.60
2018-07-05T07:48:33.996Z,14.50
2018-07-05T07:51:00.710Z,16.33
2018-07-05T07:53:27.383Z,19.60
2018-07-05T07:55:54.074Z,12.90
2018-07-05T07:58:20.755Z,14.70
2018-07-05T08:00:47.308Z,18.90
2018-07-05T08:03:13.951Z,12.03
2018-07-05T08:05:40.628Z,11.97
2018-07-05T08:08:07.273Z,10.77
2018-07-05T08:10:33.864Z,16.07
2018-07-05T08:13:00.486Z,12.33
2018-07-05T08:15:27.091Z,10.73
2018-07-05T08:17:53.772Z,13.50
2018-07-05T08:20:20.443Z,14.37
2018-07-05T08:22:47.067Z,31.57
2018-07-05T08:25:13.687Z,15.87
2018-07-05T08:27:40.303Z,16.67
2018-07-05T08:30:06.929Z,14.63
2018-07-05T08:32:33.555Z,10.47
2018-07-05T08:35:00.179Z,10.93
2018-07-05T08:37:26.796Z,14.23
2018-07-05T08:39:53.416Z,9.37
2018-07-05T08:42:20.040Z,19.63
2018-07-05T08:44:46.836Z,12.80
2018-07-05T08:47:13.412Z,18.30
2018-07-05T08:49:40.025Z,13.90
2018-07-05T08:52:06.682Z,16.93
2018-07-05T08:54:33.295Z,12.13
2018-07-05T08:56:59.920Z,17.10
2018-07-05T08:59:26.547Z,14.83
2018-07-05T09:01:53.176Z,15.20
2018-07-05T09:04:19.823Z,12.00
2018-07-05T09:06:46.443Z,15.57
2018-07-05T09:09:13.067Z,14.43
2018-07-05T09:11:39.692Z,23.03
2018-07-05T09:14:06.304Z,13.73
2018-07-05T09:16:33.046Z,14.93
2018-07-05T09:18:59.647Z,18.50
2018-07-05T09:21:26.280Z,16.33
2018-07-05T09:23:52.911Z,20.40
2018-07-05T09:26:19.567Z,13.10
2018-07-05T09:28:46.204Z,17.80
2018-07-05T09:31:12.873Z,23.27
2018-07-05T09:33:39.452Z,16.87
2018-07-05T09:36:06.072Z,17.53
2018-07-05T09:38:32.712Z,16.20
2018-07-05T09:40:59.357Z,17.17
2018-07-05T09:43:26.097Z,17.67
2018-07-05T09:45:52.697Z,18.57
2018-07-05T09:48:19.347Z,15.83
2018-07-05T09:50:48.543Z,14.60
2018-07-05T09:53:17.669Z,18.97
2018-07-05T09:55:44.420Z,15.43
2018-07-05T09:58:11.060Z,14.37
2018-07-05T10:00:43.160Z,25.00
2018-07-05T10:03:09.780Z,16.47
2018-07-05T10:05:36.416Z,17.00
2018-07-05T10:08:03.027Z,18.50
2018-07-05T10:10:29.700Z,18.80
2018-07-05T10:12:56.313Z,22.97
2018-07-05T10:15:22.927Z,26.10
2018-07-05T10:17:49.588Z,26.43
2018-07-05T10:20:16.329Z,26.10
2018-07-05T10:22:43.056Z,24.33
2018-07-05T10:25:09.663Z,28.17
2018-07-05T10:27:36.279Z,25.67
2018-07-05T10:30:09.224Z,25.50
2018-07-05T10:32:42.024Z,28.00
2018-07-05T10:35:08.656Z,32.53
2018-07-05T10:37:35.267Z,31.30
2018-07-05T10:40:08.163Z,23.27
2018-07-05T10:42:41.023Z,32.47
2018-07-05T10:45:14.564Z,27.93
2018-07-05T10:47:47.455Z,24.33
2018-07-05T10:50:20.348Z,35.47
2018-07-05T10:52:53.108Z,24.90
2018-07-05T10:55:26.010Z,30.30
2018-07-05T10:57:58.521Z,29.43
2018-07-05T11:00:31.409Z,20.57
2018-07-05T11:03:04.344Z,21.47
2018-07-05T11:05:37.083Z,24.63
2018-07-05T11:08:09.891Z,22.40
2018-07-05T11:10:42.756Z,27.70
2018-07-05T11:13:15.654Z,22.83
2018-07-05T11:15:48.416Z,23.63
2018-07-05T11:18:21.321Z,22.80
2018-07-05T11:20:54.084Z,27.73
2018-07-05T11:23:26.951Z,21.83
2018-07-05T11:25:59.647Z,23.63
2018-07-05T11:28:32.524Z,32.10
2018-07-05T11:31:05.160Z,28.70
2018-07-05T11:33:38.041Z,33.70
2018-07-05T11:36:10.716Z,36.20
2018-07-05T11:38:43.659Z,37.10
2018-07-05T11:41:16.770Z,28.27
2018-07-05T11:43:49.660Z,41.80
2018-07-05T11:46:22.434Z,27.47
2018-07-05T11:48:55.192Z,51.20
2018-07-05T11:51:27.963Z,37.77
2018-07-05T11:54:00.867Z,29.43
2018-07-05T11:56:33.576Z,23.90
2018-07-05T11:59:06.448Z,24.67
2018-07-05T12:01:39.348Z,26.03
2018-07-05T12:04:12.411Z,22.20
2018-07-05T12:06:45.010Z,35.13
2018-07-05T12:09:17.775Z,29.97
2018-07-05T12:11:50.810Z,25.73
2018-07-05T12:14:23.560Z,28.77
2018-07-05T12:16:56.398Z,33.27
2018-07-05T12:19:29.083Z,28.50
2018-07-05T12:22:01.959Z,24.60
2018-07-05T12:24:34.850Z,24.00
2018-07-05T12:27:07.636Z,22.23
2018-07-05T12:29:40.485Z,22.43
2018-07-05T12:32:13.273Z,17.93
2018-07-05T12:34:45.974Z,18.73
2018-07-05T12:37:18.746Z,16.50
2018-07-05T12:39:51.669Z,15.67
2018-07-05T12:42:24.600Z,15.07
2018-07-05T12:44:57.511Z,13.93
2018-07-05T12:47:30.293Z,13.43
2018-07-05T12:50:03.131Z,13.80
2018-07-05T12:52:35.940Z,14.40
2018-07-05T12:55:08.679Z,15.90
2018-07-05T12:57:41.492Z,13.90
2018-07-05T13:00:14.240Z,12.87
2018-07-05T13:02:47.028Z,18.27
2018-07-05T13:05:19.748Z,17.40
2018-07-05T13:07:52.452Z,14.17
2018-07-05T13:10:25.372Z,17.23
2018-07-05T13:12:58.139Z,16.93
2018-07-05T13:15:31.108Z,10.20
2018-07-05T13:20:42.880Z,15.70
2018-07-05T13:23:15.672Z,19.23
2018-07-05T13:25:48.428Z,17.87
2018-07-05T13:28:21.331Z,17.70
2018-07-05T13:30:54.000Z,16.20
2018-07-05T13:33:26.688Z,19.93
2018-07-05T13:35:59.467Z,16.60
2018-07-05T13:38:32.388Z,22.13
2018-07-05T13:41:05.248Z,16.73
2018-07-05T13:43:37.939Z,17.57
2018-07-05T13:46:10.792Z,20.40
2018-07-05T13:48:43.571Z,16.43
2018-07-05T13:51:16.482Z,17.20
2018-07-05T13:53:49.715Z,13.60
2018-07-05T13:56:22.607Z,13.80
2018-07-05T13:58:55.380Z,13.63
2018-07-05T14:01:28.025Z,11.43
2018-07-05T14:04:00.992Z,18.60
2018-07-05T14:06:33.696Z,13.70
2018-07-05T14:09:07.436Z,11.23
2018-07-05T14:11:40.343Z,14.93
2018-07-05T14:14:13.027Z,15.17
2018-07-05T14:16:45.936Z,13.00
2018-07-05T14:19:18.740Z,11.77
2018-07-05T14:21:51.572Z,11.30
2018-07-05T14:24:24.301Z,11.10
2018-07-05T14:26:56.999Z,8.60
2018-07-05T14:29:32.505Z,10.43
2018-07-05T14:32:05.471Z,11.40
2018-07-05T14:34:38.249Z,13.60
2018-07-05T14:37:11.044Z,8.73
2018-07-05T14:39:43.762Z,8.50
2018-07-05T14:42:16.603Z,7.00
2018-07-05T14:44:49.406Z,9.13
2018-07-05T14:47:22.135Z,7.13
2018-07-05T14:49:54.819Z,8.60
2018-07-05T14:52:27.658Z,7.13
2018-07-05T14:55:00.533Z,7.27
2018-07-05T14:57:33.432Z,8.43
2018-07-05T15:00:06.191Z,7.23
2018-07-05T15:02:39.032Z,9.13
2018-07-05T15:05:12.703Z,10.40
2018-07-05T15:07:45.371Z,10.93
2018-07-05T15:10:18.246Z,7.50
2018-07-05T15:12:51.036Z,8.47
2018-07-05T15:15:23.923Z,7.03
2018-07-05T15:17:56.771Z,7.60
2018-07-05T15:20:29.694Z,8.00
2018-07-05T15:23:02.380Z,8.40
2018-07-05T15:25:35.110Z,8.50
2018-07-05T15:28:07.835Z,8.97
2018-07-05T15:30:40.550Z,14.33
2018-07-05T15:33:13.304Z,14.30
2018-07-05T15:35:46.190Z,9.10
2018-07-05T15:38:18.911Z,8.50
2018-07-05T15:40:51.740Z,15.13
2018-07-05T15:43:24.416Z,7.53
2018-07-05T15:45:57.324Z,7.27
2018-07-05T15:48:30.172Z,7.77
2018-07-05T15:51:02.976Z,7.40
2018-07-05T15:53:35.829Z,6.70
2018-07-05T15:56:08.672Z,10.47
2018-07-05T15:58:41.508Z,6.90
2018-07-05T16:01:14.221Z,9.50
2018-07-05T16:03:47.656Z,6.70
2018-07-05T16:06:20.348Z,10.07
2018-07-05T16:08:53.201Z,10.33
2018-07-05T16:11:26.105Z,6.10
2018-07-05T16:13:58.861Z,10.27
2018-07-05T16:16:31.787Z,7.23
2018-07-05T16:19:04.600Z,6.37
2018-07-05T16:21:37.543Z,10.60
2018-07-05T16:24:10.632Z,8.23
2018-07-05T16:26:43.339Z,6.50
2018-07-05T16:29:16.139Z,7.40
2018-07-05T16:31:48.889Z,5.63
2018-07-05T16:34:21.858Z,6.17
2018-07-05T16:36:54.492Z,6.30
2018-07-05T16:39:27.260Z,7.37
2018-07-05T16:42:00.071Z,5.93
2018-07-05T16:44:32.750Z,6.13
2018-07-05T16:47:05.532Z,7.73
2018-07-05T16:49:38.220Z,5.77
2018-07-05T16:52:10.941Z,5.57
2018-07-05T16:54:43.676Z,5.33
2018-07-05T16:57:16.496Z,6.00
2018-07-05T16:59:49.367Z,5.93
2018-07-05T17:02:22.187Z,6.93
2018-07-05T17:04:55.134Z,6.80
2018-07-05T17:07:27.972Z,6.50
2018-07-05T17:10:00.689Z,8.87
2018-07-05T17:12:33.497Z,5.87
2018-07-05T17:15:06.467Z,6.63
2018-07-05T17:17:39.212Z,7.60
2018-07-05T17:20:12.012Z,14.43
2018-07-05T17:22:44.708Z,10.97
2018-07-05T17:25:17.627Z,10.20
2018-07-05T17:27:50.418Z,7.07
2018-07-05T17:30:23.080Z,10.67
2018-07-05T17:32:55.958Z,11.77
2018-07-05T17:35:28.755Z,8.43
2018-07-05T17:38:01.626Z,8.63
2018-07-05T17:40:34.485Z,8.63
2018-07-05T17:43:07.291Z,9.60
2018-07-05T17:45:39.975Z,9.60
2018-07-05T17:48:12.737Z,12.50
2018-07-05T17:50:47.015Z,9.43
2018-07-05T17:53:20.128Z,12.80
2018-07-05T17:55:52.862Z,9.87
2018-07-05T17:58:25.608Z,9.70
2018-07-05T18:00:58.324Z,10.33
2018-07-05T18:03:31.126Z,11.83
2018-07-05T18:06:04.232Z,10.30
2018-07-05T18:08:37.166Z,11.80
2018-07-05T18:11:10.048Z,10.30
2018-07-05T18:13:42.909Z,14.67
2018-07-05T18:16:15.652Z,10.73
2018-07-05T18:18:48.365Z,11.83
2018-07-05T18:21:21.312Z,10.83
2018-07-05T18:23:54.160Z,9.87
2018-07-05T18:26:26.962Z,10.60
2018-07-05T18:28:59.645Z,11.77
2018-07-05T18:31:32.483Z,13.03
2018-07-05T18:34:05.387Z,11.40
2018-07-05T18:36:38.044Z,10.80
2018-07-05T18:39:10.907Z,11.30
2018-07-05T18:41:43.854Z,15.23
2018-07-05T18:44:16.476Z,15.90
2018-07-05T18:46:49.241Z,11.63
2018-07-05T18:49:21.968Z,14.87
2018-07-05T18:51:54.890Z,11.57
2018-07-05T18:54:27.753Z,10.83
2018-07-05T18:57:00.744Z,10.40
2018-07-05T18:59:33.514Z,11.60
2018-07-05T19:02:06.205Z,12.60
2018-07-05T19:04:38.984Z,10.43
2018-07-05T19:07:11.707Z,10.80
2018-07-05T19:09:44.354Z,11.33
2018-07-05T19:12:16.944Z,10.13
2018-07-05T19:14:49.833Z,10.93
2018-07-05T19:17:22.573Z,10.23
2018-07-05T19:19:55.343Z,11.70
2018-07-05T19:22:28.009Z,11.00
2018-07-05T19:25:00.755Z,11.23
2018-07-05T19:27:33.580Z,10.77
2018-07-05T19:30:06.698Z,11.70
2018-07-05T19:32:39.520Z,11.53
2018-07-05T19:35:12.241Z,10.40
2018-07-05T19:37:44.983Z,11.30
2018-07-05T19:40:17.724Z,10.80
2018-07-05T19:42:50.649Z,17.63
2018-07-05T19:45:23.492Z,11.07
2018-07-05T19:47:56.320Z,11.27
2018-07-05T19:50:28.975Z,11.20
2018-07-05T19:53:01.807Z,10.87
2018-07-05T19:55:34.492Z,12.03
2018-07-05T19:58:07.173Z,11.97
2018-07-05T20:00:40.112Z,12.20
2018-07-05T20:03:12.904Z,13.77
2018-07-05T20:05:45.644Z,11.97
2018-07-05T20:08:18.429Z,11.43
2018-07-05T20:10:55.604Z,11.73
2018-07-05T20:13:28.380Z,12.47
2018-07-05T20:16:01.191Z,12.53
2018-07-05T20:18:33.917Z,12.00
2018-07-05T20:21:06.638Z,11.60
2018-07-05T20:23:39.559Z,13.50
2018-07-05T20:26:12.503Z,11.43
2018-07-05T20:28:45.298Z,11.73
2018-07-05T20:31:18.200Z,12.83
2018-07-05T20:33:51.756Z,11.93
2018-07-05T20:36:24.500Z,11.87
2018-07-05T20:38:57.248Z,12.03
2018-07-05T20:41:29.999Z,13.63
2018-07-05T20:44:02.828Z,11.70
2018-07-05T20:46:35.694Z,12.20
2018-07-05T20:49:08.346Z,10.97
2018-07-05T20:51:41.060Z,12.10
2018-07-05T20:54:14.008Z,11.30
2018-07-05T20:56:46.671Z,13.80
2018-07-05T20:59:19.320Z,12.43
2018-07-05T21:01:52.092Z,11.50
2018-07-05T21:04:24.850Z,11.70
2018-07-05T21:06:57.518Z,12.10
2018-07-05T21:09:30.384Z,11.60
2018-07-05T21:12:03.126Z,11.93
2018-07-05T21:14:35.797Z,12.40
2018-07-05T21:17:08.468Z,15.97
2018-07-05T21:19:41.203Z,11.93
2018-07-05T21:22:14.159Z,11.90
2018-07-05T21:24:46.940Z,10.73
2018-07-05T21:27:19.676Z,11.17
2018-07-05T21:29:52.351Z,11.50
2018-07-05T21:32:25.544Z,11.57
2018-07-05T21:34:58.215Z,10.40
2018-07-05T21:37:30.969Z,10.70
2018-07-05T21:40:03.852Z,9.77
2018-07-05T21:42:36.793Z,10.77
2018-07-05T21:45:09.640Z,8.93
2018-07-05T21:47:42.446Z,8.70
2018-07-05T21:50:15.260Z,12.30
2018-07-05T21:52:48.171Z,11.30
2018-07-05T21:55:20.975Z,8.63
2018-07-05T21:57:53.873Z,8.40
2018-07-05T22:00:26.671Z,12.33
2018-07-05T22:02:59.415Z,8.70
2018-07-05T22:05:32.052Z,8.93
2018-07-05T22:08:04.992Z,8.37
2018-07-05T22:10:37.804Z,9.23
2018-07-05T22:13:10.673Z,8.00
2018-07-05T22:15:43.296Z,7.20
2018-07-05T22:18:21.513Z,7.30
2018-07-05T22:20:59.711Z,7.43
2018-07-05T22:23:37.996Z,7.10
2018-07-05T22:26:16.300Z,11.00
2018-07-05T22:28:54.703Z,7.40
2018-07-05T22:31:32.589Z,7.10
2018-07-05T22:34:05.277Z,7.30
2018-07-05T22:36:38.183Z,7.53
2018-07-05T22:39:11.199Z,7.13
2018-07-05T22:41:43.949Z,6.80
2018-07-05T22:44:16.713Z,7.13
2018-07-05T22:46:49.511Z,7.30
2018-07-05T22:49:22.332Z,6.70
2018-07-05T22:51:55.147Z,8.20
2018-07-05T22:54:28.053Z,7.20
2018-07-05T22:57:00.867Z,8.53
2018-07-05T22:59:33.645Z,6.83
2018-07-05T23:02:06.389Z,6.60
2018-07-05T23:04:39.280Z,6.27
2018-07-05T23:07:12.135Z,6.00
2018-07-05T23:09:44.989Z,6.30
2018-07-05T23:12:17.751Z,6.10
2018-07-05T23:14:50.694Z,5.30
2018-07-05T23:17:23.332Z,6.10
2018-07-05T23:19:56.222Z,7.20
2018-07-05T23:22:29.021Z,5.43
2018-07-05T23:25:01.912Z,5.30
2018-07-05T23:27:34.583Z,5.40
2018-07-05T23:30:07.332Z,5.70
2018-07-05T23:32:40.104Z,13.23
2018-07-05T23:35:12.979Z,6.23
2018-07-05T23:37:45.728Z,6.60
2018-07-05T23:40:18.596Z,4.47
2018-07-05T23:42:51.219Z,4.80
2018-07-05T23:45:23.992Z,4.80
2018-07-05T23:47:56.640Z,6.60
2018-07-05T23:50:29.474Z,4.57
2018-07-05T23:53:02.328Z,4.60
2018-07-05T23:55:34.994Z,4.17
2018-07-05T23:58:07.771Z,4.73
